Golovin, Alaska
Current Conditions -  °F | °C
As of 4:36 AM on Sunday 23 Nov 2014 (Local Time) from PAGL Reporting Station
Clear Clear  
Wind Chill: -1°   Ceiling: Unl
Heat Index: 12°   Visibility: 10mi
Dew Point: -4°   Wind: 10mph
Humidity: 48%   Direction: 40°NE
Pressure: 29.55"   Gusts: NA
Location:  64.56°N, 163.01°W
Report Text: PAGL 231336Z AUTO 04009KT 10SM CLR M11/M20 A2955 RMK AO1
Loading
Personal Weather Stations






























Interactive Weather Map New forecast layout! Learn more

10-Day Weather Forecast

Advertisements
Track Severe Weather on mobile